Aviation Digital Data Service (ADDS)

Output produced by METARs form (0646 UTC 03 December 2016)
found at http://www.aviationweather.gov/adds/metars/
 
METAR text: KSBP 030556Z AUTO 05010KT 10SM CLR 13/M02 A3019 RMK AO2 SLP224 T01281022 10161 20117 53010
Conditions at: KSBP (SAN LUIS OBISPO , CA, US) observed 0556 UTC 03 December 2016
Temperature: 12.8°C (55°F)
Dewpoint: -2.2°C (28°F) [RH = 35%]
Pressure (altimeter): 30.19 inches Hg (1022.4 mb)
[Sea-level pressure: 1022.4 mb]
Winds: from the NE (50 degrees) at 12 MPH (10 knots; 5.2 m/s)
Visibility: 10 or more miles (16+ km)
Ceiling: at least 12,000 feet AGL
Clouds: sky clear below 12,000 feet AGL
Weather: automated observation with no human augmentation;
there may or may not be significant weather present at this time

METAR text: KSBP 030456Z AUTO 04005KT 10SM CLR 13/M03 A3017 RMK AO2 SLP218 T01281028
Conditions at: KSBP (SAN LUIS OBISPO , CA, US) observed 0456 UTC 03 December 2016
Temperature: 12.8°C (55°F)
Dewpoint: -2.8°C (27°F) [RH = 34%]
Pressure (altimeter): 30.17 inches Hg (1021.8 mb)
[Sea-level pressure: 1021.8 mb]
Winds: from the NE (40 degrees) at 6 MPH (5 knots; 2.6 m/s)
Visibility: 10 or more miles (16+ km)
Ceiling: at least 12,000 feet AGL
Clouds: sky clear below 12,000 feet AGL
Weather: automated observation with no human augmentation;
there may or may not be significant weather present at this time

METAR text: KSBP 030356Z VRB03KT 10SM CLR 12/M03 A3017 RMK AO2 SLP216 T01171028
Conditions at: KSBP (SAN LUIS OBISPO , CA, US) observed 0356 UTC 03 December 2016
Temperature: 11.7°C (53°F)
Dewpoint: -2.8°C (27°F) [RH = 36%]
Pressure (altimeter): 30.17 inches Hg (1021.8 mb)
[Sea-level pressure: 1021.6 mb]
Winds: variable direction winds at 3 MPH (3 knots; 1.6 m/s)
Visibility: 10 or more miles (16+ km)
Ceiling: at least 12,000 feet AGL
Clouds: sky clear below 12,000 feet AGL
Weather: no significant weather observed at this time

METAR text: KSBP 030256Z 08005KT 10SM CLR 13/M03 A3016 RMK AO2 SLP215 T01331028 53016
Conditions at: KSBP (SAN LUIS OBISPO , CA, US) observed 0256 UTC 03 December 2016
Temperature: 13.3°C (56°F)
Dewpoint: -2.8°C (27°F) [RH = 33%]
Pressure (altimeter): 30.16 inches Hg (1021.4 mb)
[Sea-level pressure: 1021.5 mb]
Winds: from the E (80 degrees) at 6 MPH (5 knots; 2.6 m/s)
Visibility: 10 or more miles (16+ km)
Ceiling: at least 12,000 feet AGL
Clouds: sky clear below 12,000 feet AGL
Weather: no significant weather observed at this time

METAR text: KSBP 030156Z 05006KT 10SM CLR 14/M03 A3015 RMK AO2 SLP211 T01391033
Conditions at: KSBP (SAN LUIS OBISPO , CA, US) observed 0156 UTC 03 December 2016
Temperature: 13.9°C (57°F)
Dewpoint: -3.3°C (26°F) [RH = 30%]
Pressure (altimeter): 30.15 inches Hg (1021.1 mb)
[Sea-level pressure: 1021.1 mb]
Winds: from the NE (50 degrees) at 7 MPH (6 knots; 3.1 m/s)
Visibility: 10 or more miles (16+ km)
Ceiling: at least 12,000 feet AGL
Clouds: sky clear below 12,000 feet AGL
Weather: no significant weather observed at this time

METAR text: KSBP 030056Z 07013KT 10SM CLR 15/M03 A3012 RMK AO2 SLP201 T01501028
Conditions at: KSBP (SAN LUIS OBISPO , CA, US) observed 0056 UTC 03 December 2016
Temperature: 15.0°C (59°F)
Dewpoint: -2.8°C (27°F) [RH = 29%]
Pressure (altimeter): 30.12 inches Hg (1020.1 mb)
[Sea-level pressure: 1020.1 mb]
Winds: from the ENE (70 degrees) at 15 MPH (13 knots; 6.8 m/s)
Visibility: 10 or more miles (16+ km)
Ceiling: at least 12,000 feet AGL
Clouds: sky clear below 12,000 feet AGL
Weather: no significant weather observed at this time

METAR text: KSBP 022356Z 06007KT 10SM CLR 16/00 A3011 RMK AO2 SLP198 T01610000 10178 20133 55000
Conditions at: KSBP (SAN LUIS OBISPO , CA, US) observed 2356 UTC 02 December 2016
Temperature: 16.1°C (61°F)
Dewpoint: 0.0°C (32°F) [RH = 33%]
Pressure (altimeter): 30.11 inches Hg (1019.7 mb)
[Sea-level pressure: 1019.8 mb]
Winds: from the ENE (60 degrees) at 8 MPH (7 knots; 3.6 m/s)
Visibility: 10 or more miles (16+ km)
Ceiling: at least 12,000 feet AGL
Clouds: sky clear below 12,000 feet AGL
Weather: no significant weather observed at this time

METAR text: KSBP 022256Z VRB06KT 10SM CLR 17/01 A3011 RMK AO2 SLP197 T01720006
Conditions at: KSBP (SAN LUIS OBISPO , CA, US) observed 2256 UTC 02 December 2016
Temperature: 17.2°C (63°F)
Dewpoint: 0.6°C (33°F) [RH = 33%]
Pressure (altimeter): 30.11 inches Hg (1019.7 mb)
[Sea-level pressure: 1019.7 mb]
Winds: variable direction winds at 7 MPH (6 knots; 3.1 m/s)
Visibility: 10 or more miles (16+ km)
Ceiling: at least 12,000 feet AGL
Clouds: sky clear below 12,000 feet AGL
Weather: no significant weather observed at this time